createdAt,value
2018-02-05T00:01:08.742Z,24.87
2018-02-05T00:03:36.236Z,22.87
2018-02-05T00:06:03.701Z,23.13
2018-02-05T00:08:31.157Z,22.50
2018-02-05T00:10:58.691Z,20.40
2018-02-05T00:13:26.161Z,20.83
2018-02-05T00:15:53.662Z,19.73
2018-02-05T00:18:21.335Z,20.43
2018-02-05T00:20:48.816Z,19.80
2018-02-05T00:23:16.400Z,20.33
2018-02-05T00:25:43.873Z,18.33
2018-02-05T00:28:11.334Z,19.63
2018-02-05T00:30:38.809Z,18.63
2018-02-05T00:33:06.285Z,20.47
2018-02-05T00:35:33.762Z,19.60
2018-02-05T00:38:02.014Z,18.33
2018-02-05T00:40:29.509Z,17.60
2018-02-05T00:42:56.975Z,18.67
2018-02-05T00:45:24.467Z,17.77
2018-02-05T00:47:51.955Z,17.80
2018-02-05T00:50:19.530Z,17.60
2018-02-05T00:52:47.026Z,17.03
2018-02-05T00:55:14.490Z,16.87
2018-02-05T00:57:41.988Z,17.70
2018-02-05T01:00:09.455Z,18.23
2018-02-05T01:02:36.965Z,18.47
2018-02-05T01:05:04.429Z,19.27
2018-02-05T01:07:31.926Z,18.97
2018-02-05T01:09:59.387Z,18.10
2018-02-05T01:12:26.887Z,18.10
2018-02-05T01:14:54.350Z,17.63
2018-02-05T01:17:22.609Z,19.17
2018-02-05T01:19:50.101Z,17.57
2018-02-05T01:22:17.678Z,18.77
2018-02-05T01:24:45.147Z,16.73
2018-02-05T01:27:12.653Z,18.70
2018-02-05T01:29:40.221Z,19.13
2018-02-05T01:32:07.705Z,17.40
2018-02-05T01:34:35.169Z,18.10
2018-02-05T01:37:02.635Z,15.67
2018-02-05T01:39:30.153Z,15.97
2018-02-05T01:41:58.558Z,18.93
2018-02-05T01:44:26.030Z,18.70
2018-02-05T01:46:53.503Z,18.70
2018-02-05T01:49:20.970Z,17.30
2018-02-05T01:51:48.437Z,17.40
2018-02-05T01:54:16.679Z,18.33
2018-02-05T01:56:44.141Z,19.60
2018-02-05T01:59:11.607Z,18.97
2018-02-05T02:01:39.855Z,18.33
2018-02-05T02:04:07.330Z,18.70
2018-02-05T02:06:34.795Z,19.10
2018-02-05T02:09:02.271Z,19.67
2018-02-05T02:11:29.739Z,18.13
2018-02-05T02:13:57.982Z,17.67
2018-02-05T02:16:25.474Z,19.40
2018-02-05T02:18:52.929Z,18.13
2018-02-05T02:21:20.423Z,18.20
2018-02-05T02:23:47.898Z,17.37
2018-02-05T02:26:15.394Z,17.27
2018-02-05T02:28:42.861Z,17.30
2018-02-05T02:31:10.353Z,18.37
2018-02-05T02:33:37.821Z,18.60
2018-02-05T02:36:05.342Z,17.23
2018-02-05T02:38:32.810Z,18.83
2018-02-05T02:41:00.277Z,17.57
2018-02-05T02:43:27.746Z,18.00
2018-02-05T02:45:56.000Z,18.27
2018-02-05T02:48:23.477Z,20.23
2018-02-05T02:50:50.964Z,21.10
2018-02-05T02:53:18.449Z,20.63
2018-02-05T02:55:45.945Z,20.83
2018-02-05T02:58:13.414Z,18.80
2018-02-05T03:00:40.885Z,18.63
2018-02-05T03:03:08.359Z,17.50
2018-02-05T03:05:35.823Z,18.03
2018-02-05T03:08:04.053Z,18.70
2018-02-05T03:10:31.526Z,19.07
2018-02-05T03:12:58.996Z,19.23
2018-02-05T03:15:27.226Z,17.67
2018-02-05T03:17:54.697Z,16.43
2018-02-05T03:20:22.216Z,16.87
2018-02-05T03:22:49.687Z,18.63
2018-02-05T03:25:17.146Z,19.50
2018-02-05T03:27:44.665Z,20.17
2018-02-05T03:30:12.121Z,17.73
2018-02-05T03:32:39.593Z,18.07
2018-02-05T03:35:07.065Z,20.77
2018-02-05T03:37:34.535Z,17.63
2018-02-05T03:40:02.785Z,16.70
2018-02-05T03:42:30.273Z,18.37
2018-02-05T03:44:57.737Z,19.97
2018-02-05T03:47:25.209Z,17.53
2018-02-05T03:49:52.677Z,17.27
2018-02-05T03:52:20.138Z,17.80
2018-02-05T03:54:47.678Z,17.33
2018-02-05T03:57:15.270Z,17.03
2018-02-05T03:59:42.749Z,17.93
2018-02-05T04:02:10.214Z,16.53
2018-02-05T04:04:37.716Z,16.83
2018-02-05T04:07:11.030Z,18.00
2018-02-05T04:09:38.513Z,17.47
2018-02-05T04:12:05.978Z,17.87
2018-02-05T04:14:33.481Z,21.53
2018-02-05T04:17:00.968Z,17.17
2018-02-05T04:19:28.435Z,18.80
2018-02-05T04:21:55.920Z,17.87
2018-02-05T04:24:23.383Z,18.13
2018-02-05T04:26:51.650Z,19.43
2018-02-05T04:29:19.110Z,18.80
2018-02-05T04:31:46.581Z,18.77
2018-02-05T04:34:14.821Z,18.17
2018-02-05T04:36:42.291Z,18.50
2018-02-05T04:39:09.752Z,16.70
2018-02-05T04:41:37.991Z,20.17
2018-02-05T04:44:05.462Z,19.07
2018-02-05T04:46:32.917Z,18.43
2018-02-05T04:49:00.433Z,17.33
2018-02-05T04:51:27.900Z,19.50
2018-02-05T04:53:55.367Z,17.33
2018-02-05T04:56:22.836Z,18.20
2018-02-05T04:58:50.310Z,20.53
2018-02-05T05:01:17.852Z,18.20
2018-02-05T05:03:45.322Z,18.07
2018-02-05T05:06:12.834Z,17.17
2018-02-05T05:08:40.299Z,17.97
2018-02-05T05:11:07.971Z,19.50
2018-02-05T05:13:35.534Z,19.47
2018-02-05T05:16:03.005Z,19.13
2018-02-05T05:18:30.471Z,20.03
2018-02-05T05:20:57.954Z,17.63
2018-02-05T05:23:25.423Z,17.10
2018-02-05T05:25:52.888Z,15.63
2018-02-05T05:28:20.354Z,18.27
2018-02-05T05:30:47.885Z,19.63
2018-02-05T05:33:15.360Z,17.93
2018-02-05T05:35:42.846Z,17.27
2018-02-05T05:38:10.316Z,20.47
2018-02-05T05:40:37.784Z,19.83
2018-02-05T05:43:05.297Z,19.43
2018-02-05T05:45:32.757Z,18.10
2018-02-05T05:48:00.229Z,20.60
2018-02-05T05:50:27.750Z,20.80
2018-02-05T05:52:55.206Z,20.97
2018-02-05T05:55:22.673Z,19.83
2018-02-05T05:57:50.140Z,19.27
2018-02-05T06:00:18.370Z,20.50
2018-02-05T06:02:45.877Z,27.80
2018-02-05T06:05:13.349Z,28.30
2018-02-05T06:07:40.859Z,24.70
2018-02-05T06:10:09.062Z,24.57
2018-02-05T06:12:36.558Z,25.43
2018-02-05T06:15:04.020Z,25.27
2018-02-05T06:17:31.474Z,24.37
2018-02-05T06:19:58.937Z,23.90
2018-02-05T06:22:26.494Z,21.83
2018-02-05T06:24:53.988Z,21.03
2018-02-05T06:27:21.466Z,21.83
2018-02-05T06:29:48.949Z,21.80
2018-02-05T06:32:16.413Z,22.00
2018-02-05T06:34:43.882Z,22.17
2018-02-05T06:37:11.344Z,20.07
2018-02-05T06:39:39.578Z,19.93
2018-02-05T06:42:07.044Z,22.50
2018-02-05T06:44:34.506Z,22.03
2018-02-05T06:47:02.052Z,20.20
2018-02-05T06:49:29.532Z,22.90
2018-02-05T06:52:08.893Z,19.60
2018-02-05T06:54:48.172Z,20.33
2018-02-05T06:57:15.649Z,19.13
2018-02-05T06:59:43.136Z,20.70
2018-02-05T07:02:10.621Z,20.73
2018-02-05T07:04:38.081Z,20.53
2018-02-05T07:07:05.549Z,22.10
2018-02-05T07:09:33.802Z,22.63
2018-02-05T07:12:01.269Z,22.33
2018-02-05T07:14:28.753Z,20.83
2018-02-05T07:16:56.220Z,22.03
2018-02-05T07:19:23.693Z,21.13
2018-02-05T07:21:51.577Z,20.53
2018-02-05T07:24:19.827Z,22.10
2018-02-05T07:26:47.313Z,19.97
2018-02-05T07:29:14.786Z,19.33
2018-02-05T07:31:42.259Z,15.33
2018-02-05T07:34:09.814Z,14.77
2018-02-05T07:36:38.063Z,13.90
2018-02-05T07:39:05.530Z,13.77
2018-02-05T07:41:33.029Z,14.37
2018-02-05T07:44:00.504Z,13.97
2018-02-05T07:46:27.975Z,13.67
2018-02-05T07:48:55.433Z,13.47
2018-02-05T07:51:22.916Z,14.10
2018-02-05T07:53:50.444Z,14.33
2018-02-05T07:56:18.009Z,14.93
2018-02-05T07:58:45.477Z,14.47
2018-02-05T08:01:12.941Z,14.13
2018-02-05T08:03:41.166Z,14.93
2018-02-05T08:06:08.647Z,13.60
2018-02-05T08:08:36.109Z,13.90
2018-02-05T08:11:04.348Z,14.30
2018-02-05T08:13:31.850Z,14.83
2018-02-05T08:15:59.431Z,13.10
2018-02-05T08:18:26.898Z,12.73
2018-02-05T08:20:54.368Z,13.33
2018-02-05T08:23:21.873Z,13.43
2018-02-05T08:25:49.405Z,12.43
2018-02-05T08:28:16.869Z,12.13
2018-02-05T08:30:44.333Z,11.23
2018-02-05T08:33:11.812Z,12.23
2018-02-05T08:35:39.284Z,10.93
2018-02-05T08:38:06.750Z,11.47
2018-02-05T08:40:34.258Z,12.13
2018-02-05T08:43:01.721Z,11.90
2018-02-05T08:45:29.187Z,13.13
2018-02-05T08:47:56.652Z,11.07
2018-02-05T08:50:24.108Z,12.00
2018-02-05T08:52:52.149Z,13.93
2018-02-05T08:55:19.617Z,13.93
2018-02-05T08:57:47.193Z,11.53
2018-02-05T09:00:14.661Z,12.83
2018-02-05T09:02:42.120Z,12.43
2018-02-05T09:05:09.585Z,13.10
2018-02-05T09:07:37.830Z,12.27
2018-02-05T09:10:05.309Z,12.07
2018-02-05T09:12:32.800Z,12.43
2018-02-05T09:15:00.268Z,12.07
2018-02-05T09:17:27.805Z,12.57
2018-02-05T09:19:55.380Z,13.37
2018-02-05T09:22:22.852Z,16.93
2018-02-05T09:24:50.317Z,12.40
2018-02-05T09:27:17.832Z,11.30
2018-02-05T09:29:45.308Z,13.47
2018-02-05T09:32:12.765Z,11.67
2018-02-05T09:34:40.245Z,10.80
2018-02-05T09:37:08.480Z,11.97
2018-02-05T09:39:35.950Z,11.10
2018-02-05T09:42:03.408Z,12.40
2018-02-05T09:44:30.876Z,12.80
2018-02-05T09:46:58.333Z,12.30
2018-02-05T09:49:25.887Z,11.70
2018-02-05T09:51:54.144Z,12.07
2018-02-05T09:54:21.621Z,11.20
2018-02-05T09:56:49.159Z,11.97
2018-02-05T09:59:17.413Z,12.23
2018-02-05T10:01:44.873Z,12.17
2018-02-05T10:04:12.338Z,11.37
2018-02-05T10:06:39.864Z,11.70
2018-02-05T10:09:07.348Z,11.57
2018-02-05T10:11:34.819Z,10.97
2018-02-05T10:14:02.315Z,12.37
2018-02-05T10:16:29.778Z,11.40
2018-02-05T10:18:57.268Z,12.67
2018-02-05T10:21:24.729Z,15.07
2018-02-05T10:23:52.233Z,12.00
2018-02-05T10:26:19.692Z,11.80
2018-02-05T10:28:47.198Z,11.83
2018-02-05T10:31:14.670Z,10.77
2018-02-05T10:33:42.129Z,12.07
2018-02-05T10:36:09.598Z,10.27
2018-02-05T10:38:37.837Z,11.17
2018-02-05T10:41:05.312Z,11.00
2018-02-05T10:43:32.773Z,10.63
2018-02-05T10:46:01.037Z,10.23
2018-02-05T10:48:28.628Z,11.17
2018-02-05T10:50:56.215Z,10.57
2018-02-05T10:53:23.784Z,10.57
2018-02-05T10:55:51.241Z,10.23
2018-02-05T10:58:18.741Z,9.63
2018-02-05T11:00:46.213Z,10.07
2018-02-05T11:03:13.674Z,10.70
2018-02-05T11:05:41.199Z,10.37
2018-02-05T11:08:08.656Z,10.40
2018-02-05T11:10:36.134Z,9.57
2018-02-05T11:13:03.645Z,10.33
2018-02-05T11:15:31.112Z,9.93
2018-02-05T11:17:58.569Z,9.80
2018-02-05T11:20:26.042Z,9.77
2018-02-05T11:22:54.287Z,10.13
2018-02-05T11:25:21.790Z,9.57
2018-02-05T11:27:49.343Z,9.17
2018-02-05T11:30:16.810Z,9.50
2018-02-05T11:32:44.314Z,9.63
2018-02-05T11:35:11.790Z,8.77
2018-02-05T11:37:39.246Z,8.90
2018-02-05T11:40:06.756Z,8.40
2018-02-05T11:42:34.237Z,8.83
2018-02-05T11:45:01.697Z,8.83
2018-02-05T11:47:29.163Z,8.17
2018-02-05T11:49:56.635Z,8.07
2018-02-05T11:52:24.886Z,7.90
2018-02-05T11:54:52.373Z,8.03
2018-02-05T11:57:19.828Z,8.23
2018-02-05T11:59:47.292Z,8.27
2018-02-05T12:04:47.739Z,8.60
2018-02-05T12:07:15.196Z,7.90
2018-02-05T12:09:42.667Z,8.33
2018-02-05T12:12:10.122Z,8.60
2018-02-05T12:14:37.587Z,8.13
2018-02-05T12:17:05.872Z,8.90
2018-02-05T12:19:33.426Z,7.90
2018-02-05T12:22:00.905Z,9.33
2018-02-05T12:24:28.390Z,9.13
2018-02-05T12:26:55.877Z,9.30
2018-02-05T12:29:23.324Z,9.40
2018-02-05T12:31:50.784Z,9.00
2018-02-05T12:34:19.029Z,9.60
2018-02-05T12:36:46.497Z,10.60
2018-02-05T12:39:13.960Z,10.40
2018-02-05T12:41:41.425Z,10.40
2018-02-05T12:44:08.883Z,9.83
2018-02-05T12:46:36.924Z,9.77
2018-02-05T12:49:04.383Z,10.27
2018-02-05T12:51:31.878Z,9.87
2018-02-05T12:53:59.353Z,8.97
2018-02-05T12:56:26.820Z,9.23
2018-02-05T12:58:54.289Z,9.57
2018-02-05T13:04:34.547Z,9.10
2018-02-05T13:07:02.001Z,8.77
2018-02-05T13:09:29.513Z,9.33
2018-02-05T13:11:56.978Z,9.20
2018-02-05T13:14:24.493Z,9.30
2018-02-05T13:16:51.983Z,7.87
2018-02-05T13:19:19.434Z,8.30
2018-02-05T13:21:46.910Z,9.17
2018-02-05T13:24:14.420Z,8.97
2018-02-05T13:26:41.900Z,7.50
2018-02-05T13:29:09.384Z,7.90
2018-02-05T13:31:36.843Z,6.83
2018-02-05T13:34:04.356Z,8.10
2018-02-05T13:36:31.833Z,7.77
2018-02-05T13:38:59.312Z,7.23
2018-02-05T13:41:26.773Z,6.93
2018-02-05T13:43:54.222Z,6.60
2018-02-05T13:46:22.451Z,7.00
2018-02-05T13:48:49.893Z,7.37
2018-02-05T13:51:18.120Z,7.27
2018-02-05T13:53:45.635Z,7.37
2018-02-05T13:56:13.094Z,6.07
2018-02-05T13:58:40.549Z,5.93
2018-02-05T14:01:08.770Z,6.27
2018-02-05T14:03:36.221Z,7.10
2018-02-05T14:06:04.450Z,6.67
2018-02-05T14:08:31.902Z,8.50
2018-02-05T14:10:59.372Z,7.00
2018-02-05T14:13:26.925Z,7.80
2018-02-05T14:15:54.387Z,7.23
2018-02-05T14:18:21.849Z,9.60
2018-02-05T14:20:49.310Z,8.00
2018-02-05T14:23:17.564Z,8.87
2018-02-05T14:25:45.049Z,17.30
2018-02-05T14:28:12.534Z,8.50
2018-02-05T14:30:40.021Z,6.67
2018-02-05T14:33:07.473Z,7.20
2018-02-05T14:35:34.934Z,7.63
2018-02-05T14:38:03.150Z,6.43
2018-02-05T14:40:30.604Z,8.43
2018-02-05T14:42:58.880Z,6.87
2018-02-05T14:45:26.337Z,6.70
2018-02-05T14:47:53.811Z,7.37
2018-02-05T14:50:21.293Z,7.83
2018-02-05T14:52:48.741Z,6.90
2018-02-05T14:55:16.256Z,10.47
2018-02-05T14:57:43.709Z,8.20
2018-02-05T15:00:11.159Z,7.17
2018-02-05T15:02:38.707Z,7.50
2018-02-05T15:05:06.161Z,8.20
2018-02-05T15:07:33.619Z,8.03
2018-02-05T15:10:01.865Z,7.90
2018-02-05T15:12:29.319Z,7.43
2018-02-05T15:14:56.777Z,7.33
2018-02-05T15:17:25.005Z,7.30
2018-02-05T15:19:52.513Z,7.03
2018-02-05T15:22:19.973Z,6.30
2018-02-05T15:24:47.471Z,7.03
2018-02-05T15:27:14.948Z,7.50
2018-02-05T15:29:42.398Z,6.93
2018-02-05T15:32:09.854Z,7.10
2018-02-05T15:34:37.365Z,7.30
2018-02-05T15:37:04.826Z,8.20
2018-02-05T15:39:33.042Z,9.43
2018-02-05T15:42:00.562Z,9.53
2018-02-05T15:44:28.058Z,9.87
2018-02-05T15:46:55.505Z,9.73
2018-02-05T15:49:22.996Z,9.83
2018-02-05T15:51:53.157Z,10.07
2018-02-05T15:54:20.693Z,10.70
2018-02-05T15:56:48.922Z,10.63
2018-02-05T15:59:16.378Z,10.53
2018-02-05T16:01:44.609Z,10.67
2018-02-05T16:04:12.070Z,10.97
2018-02-05T16:06:40.293Z,11.63
2018-02-05T16:09:07.749Z,11.77
2018-02-05T16:11:35.976Z,11.70
2018-02-05T16:14:03.465Z,11.57
2018-02-05T16:16:30.974Z,12.33
2018-02-05T16:18:58.472Z,12.60
2018-02-05T16:21:25.929Z,12.40
2018-02-05T16:23:53.438Z,13.70
2018-02-05T16:26:20.910Z,12.27
2018-02-05T16:28:48.401Z,13.00
2018-02-05T16:31:15.863Z,14.63
2018-02-05T16:33:43.374Z,15.33
2018-02-05T16:36:10.870Z,13.20
2018-02-05T16:38:38.455Z,15.87
2018-02-05T16:41:05.914Z,14.50
2018-02-05T16:43:33.377Z,15.40
2018-02-05T16:46:01.207Z,14.83
2018-02-05T16:48:28.681Z,14.80
2018-02-05T16:50:56.161Z,14.63
2018-02-05T16:53:23.646Z,15.50
2018-02-05T16:55:51.206Z,14.50
2018-02-05T16:58:18.884Z,14.80
2018-02-05T17:00:46.354Z,14.57
2018-02-05T17:03:14.618Z,14.70
2018-02-05T17:05:42.082Z,14.20
2018-02-05T17:08:09.551Z,16.03
2018-02-05T17:10:37.042Z,16.10
2018-02-05T17:13:04.537Z,16.20
2018-02-05T17:15:32.005Z,17.23
2018-02-05T17:17:59.515Z,16.70
2018-02-05T17:20:26.973Z,17.03
2018-02-05T17:22:54.562Z,15.37
2018-02-05T17:25:22.037Z,17.90
2018-02-05T17:27:49.498Z,26.17
2018-02-05T17:30:17.000Z,28.73
2018-02-05T17:32:44.502Z,27.73
2018-02-05T17:35:11.985Z,36.83
2018-02-05T17:37:39.449Z,27.37
2018-02-05T17:40:06.917Z,32.70
2018-02-05T17:42:34.420Z,18.77
2018-02-05T17:45:01.891Z,16.87
2018-02-05T17:47:29.341Z,15.67
2018-02-05T17:49:56.813Z,15.63
2018-02-05T17:52:24.315Z,16.37
2018-02-05T17:54:51.873Z,16.63
2018-02-05T17:57:20.163Z,18.57
2018-02-05T17:59:48.417Z,16.77
2018-02-05T18:02:15.921Z,16.57
2018-02-05T18:04:43.535Z,17.13
2018-02-05T18:07:11.944Z,16.20
2018-02-05T18:09:40.232Z,19.33
2018-02-05T18:12:08.586Z,20.43
2018-02-05T18:14:36.109Z,20.53
2018-02-05T18:17:03.671Z,20.87
2018-02-05T18:19:31.219Z,20.73
2018-02-05T18:21:58.757Z,21.50
2018-02-05T18:24:26.289Z,22.57
2018-02-05T18:26:53.795Z,19.87
2018-02-05T18:29:21.311Z,22.10
2018-02-05T18:31:49.636Z,22.07
2018-02-05T18:34:17.177Z,21.57
2018-02-05T18:36:44.724Z,18.20
2018-02-05T18:39:12.241Z,13.40
2018-02-05T18:41:39.845Z,13.80
2018-02-05T18:44:08.116Z,12.83
2018-02-05T18:46:35.741Z,11.57
2018-02-05T18:49:03.276Z,10.90
2018-02-05T18:51:30.740Z,10.77
2018-02-05T18:53:58.210Z,12.63
2018-02-05T18:56:37.716Z,12.13
2018-02-05T18:59:05.980Z,10.90
2018-02-05T19:01:33.441Z,10.60
2018-02-05T19:04:00.982Z,10.40
2018-02-05T19:06:28.461Z,10.90
2018-02-05T19:08:55.933Z,10.97
2018-02-05T19:11:23.398Z,10.40
2018-02-05T19:13:50.902Z,10.03
2018-02-05T19:16:18.377Z,11.10
2018-02-05T19:18:45.849Z,9.97
2018-02-05T19:21:13.373Z,10.50
2018-02-05T19:23:41.618Z,11.87
2018-02-05T19:26:09.122Z,11.17
2018-02-05T19:28:36.589Z,13.93
2018-02-05T19:31:04.200Z,13.73
2018-02-05T19:33:31.770Z,13.20
2018-02-05T19:35:59.242Z,14.77
2018-02-05T19:38:26.722Z,14.20
2018-02-05T19:40:54.238Z,11.30
2018-02-05T19:43:21.701Z,9.90
2018-02-05T19:45:49.158Z,9.70
2018-02-05T19:48:16.628Z,10.67
2018-02-05T19:50:44.135Z,11.50
2018-02-05T19:53:11.600Z,10.67
2018-02-05T19:55:39.154Z,11.57
2018-02-05T19:58:06.740Z,11.47
2018-02-05T20:00:35.350Z,14.17
2018-02-05T20:03:02.875Z,13.37
2018-02-05T20:05:30.399Z,13.53
2018-02-05T20:07:57.862Z,13.73
2018-02-05T20:10:25.424Z,14.97
2018-02-05T20:12:52.899Z,14.60
2018-02-05T20:15:20.421Z,15.67
2018-02-05T20:17:47.890Z,17.10
2018-02-05T20:20:15.496Z,17.20
2018-02-05T20:22:43.766Z,18.03
2018-02-05T20:25:11.250Z,20.07
2018-02-05T20:27:38.720Z,18.70
2018-02-05T20:30:06.233Z,18.73
2018-02-05T20:32:33.701Z,18.20
2018-02-05T20:35:01.180Z,17.80
2018-02-05T20:37:28.707Z,19.30
2018-02-05T20:39:56.221Z,19.63
2018-02-05T20:42:23.829Z,18.77
2018-02-05T20:44:51.335Z,19.50
2018-02-05T20:47:18.837Z,20.47
2018-02-05T20:49:47.072Z,19.17
2018-02-05T20:52:14.585Z,20.47
2018-02-05T20:54:42.095Z,20.60
2018-02-05T20:57:11.133Z,20.33
2018-02-05T20:59:38.649Z,21.13
2018-02-05T21:02:06.114Z,23.63
2018-02-05T21:04:33.749Z,23.80
2018-02-05T21:07:01.345Z,22.20
2018-02-05T21:09:29.576Z,22.30
2018-02-05T21:11:57.042Z,23.73
2018-02-05T22:07:06.331Z,27.00
2018-02-05T22:09:33.794Z,28.70
2018-02-05T22:12:01.298Z,27.20
2018-02-05T22:14:28.765Z,28.27
2018-02-05T22:16:56.258Z,30.83
2018-02-05T22:19:23.722Z,37.70
2018-02-05T22:21:51.245Z,36.50
2018-02-05T22:24:18.769Z,34.07
2018-02-05T22:26:46.278Z,32.27
2018-02-05T22:29:13.777Z,27.03
2018-02-05T22:31:41.259Z,27.60
2018-02-05T22:34:08.756Z,24.53
2018-02-05T22:36:36.228Z,25.33
2018-02-05T22:39:03.689Z,25.93
2018-02-05T22:41:31.153Z,24.23
2018-02-05T22:43:58.677Z,25.97
2018-02-05T22:46:26.142Z,26.70
2018-02-05T22:48:53.611Z,26.40
2018-02-05T22:51:21.144Z,33.33
2018-02-05T22:53:50.137Z,34.57
2018-02-05T22:56:17.622Z,32.73
2018-02-05T22:58:45.207Z,30.97
2018-02-05T23:01:12.691Z,29.20
2018-02-05T23:03:40.153Z,29.40
2018-02-05T23:06:07.650Z,26.70
2018-02-05T23:08:35.111Z,24.77
2018-02-05T23:11:02.573Z,26.83
2018-02-05T23:13:30.093Z,25.13
2018-02-05T23:15:57.558Z,22.87
2018-02-05T23:18:25.069Z,21.87
2018-02-05T23:20:52.699Z,22.43
2018-02-05T23:23:20.222Z,21.10
2018-02-05T23:25:47.681Z,24.83
2018-02-05T23:28:15.185Z,23.50
2018-02-05T23:30:42.665Z,22.97
2018-02-05T23:33:10.148Z,22.53
2018-02-05T23:35:37.638Z,22.60
2018-02-05T23:38:05.113Z,22.03
2018-02-05T23:40:32.602Z,23.60
2018-02-05T23:43:00.077Z,22.10
2018-02-05T23:45:27.536Z,24.40
2018-02-05T23:47:55.003Z,21.93
2018-02-05T23:50:23.073Z,23.97
2018-02-05T23:52:51.312Z,23.10
2018-02-05T23:55:18.774Z,21.60
2018-02-05T23:57:46.235Z,23.67
